sensor_id;sensor_type;location;lat;lon;timestamp;P1;durP1;ratioP1;P2;durP2;ratioP2
74707;SDS011;63360;50.104;8.074;2023-02-15T00:00:37;155.77;;;13.35;;
74707;SDS011;63360;50.104;8.074;2023-02-15T00:03:03;51.45;;;11.07;;
74707;SDS011;63360;50.104;8.074;2023-02-15T00:05:30;140.88;;;13.98;;
74707;SDS011;63360;50.104;8.074;2023-02-15T00:07:57;113.32;;;13.32;;
74707;SDS011;63360;50.104;8.074;2023-02-15T00:10:23;120.43;;;13.23;;
74707;SDS011;63360;50.104;8.074;2023-02-15T00:12:49;120.97;;;13.05;;
74707;SDS011;63360;50.104;8.074;2023-02-15T00:15:16;182.98;;;13.82;;
74707;SDS011;63360;50.104;8.074;2023-02-15T00:17:42;288.38;;;16.30;;
74707;SDS011;63360;50.104;8.074;2023-02-15T00:20:09;96.82;;;12.45;;
74707;SDS011;63360;50.104;8.074;2023-02-15T00:22:35;300.57;;;14.90;;
74707;SDS011;63360;50.104;8.074;2023-02-15T00:25:02;71.28;;;10.85;;
74707;SDS011;63360;50.104;8.074;2023-02-15T00:27:28;133.88;;;12.23;;
74707;SDS011;63360;50.104;8.074;2023-02-15T00:29:54;204.05;;;13.98;;
74707;SDS011;63360;50.104;8.074;2023-02-15T00:32:21;326.17;;;16.60;;
74707;SDS011;63360;50.104;8.074;2023-02-15T00:34:47;303.10;;;15.90;;
74707;SDS011;63360;50.104;8.074;2023-02-15T00:37:14;117.25;;;11.38;;
74707;SDS011;63360;50.104;8.074;2023-02-15T00:39:40;200.20;;;13.07;;
74707;SDS011;63360;50.104;8.074;2023-02-15T00:42:06;30.98;;;9.50;;
74707;SDS011;63360;50.104;8.074;2023-02-15T00:44:33;116.32;;;11.45;;
74707;SDS011;63360;50.104;8.074;2023-02-15T00:46:59;69.97;;;10.67;;
74707;SDS011;63360;50.104;8.074;2023-02-15T00:49:25;155.02;;;12.90;;
74707;SDS011;63360;50.104;8.074;2023-02-15T00:51:52;175.38;;;13.38;;
74707;SDS011;63360;50.104;8.074;2023-02-15T00:54:18;48.83;;;9.52;;
74707;SDS011;63360;50.104;8.074;2023-02-15T00:56:45;58.15;;;11.57;;
74707;SDS011;63360;50.104;8.074;2023-02-15T00:59:11;43.37;;;10.40;;
74707;SDS011;63360;50.104;8.074;2023-02-15T01:01:37;168.00;;;12.18;;
74707;SDS011;63360;50.104;8.074;2023-02-15T01:04:04;141.20;;;12.00;;
74707;SDS011;63360;50.104;8.074;2023-02-15T01:06:31;68.20;;;9.98;;
74707;SDS011;63360;50.104;8.074;2023-02-15T01:08:57;75.93;;;10.85;;
74707;SDS011;63360;50.104;8.074;2023-02-15T01:11:24;104.97;;;11.43;;
74707;SDS011;63360;50.104;8.074;2023-02-15T01:13:51;62.67;;;10.25;;
74707;SDS011;63360;50.104;8.074;2023-02-15T01:16:19;184.55;;;12.70;;
74707;SDS011;63360;50.104;8.074;2023-02-15T01:18:46;63.08;;;10.05;;
74707;SDS011;63360;50.104;8.074;2023-02-15T01:21:14;97.68;;;11.20;;
74707;SDS011;63360;50.104;8.074;2023-02-15T01:23:42;60.30;;;10.40;;
74707;SDS011;63360;50.104;8.074;2023-02-15T01:26:09;43.70;;;9.75;;
74707;SDS011;63360;50.104;8.074;2023-02-15T01:28:36;127.38;;;11.57;;
74707;SDS011;63360;50.104;8.074;2023-02-15T01:31:10;111.03;;;11.18;;
74707;SDS011;63360;50.104;8.074;2023-02-15T01:33:38;35.22;;;9.13;;
74707;SDS011;63360;50.104;8.074;2023-02-15T01:36:05;22.83;;;8.30;;
74707;SDS011;63360;50.104;8.074;2023-02-15T01:38:31;86.90;;;10.77;;
74707;SDS011;63360;50.104;8.074;2023-02-15T01:40:59;89.00;;;10.23;;
74707;SDS011;63360;50.104;8.074;2023-02-15T01:43:47;53.90;;;9.50;;
74707;SDS011;63360;50.104;8.074;2023-02-15T01:46:23;35.53;;;8.63;;
74707;SDS011;63360;50.104;8.074;2023-02-15T01:49:36;51.00;;;9.53;;
74707;SDS011;63360;50.104;8.074;2023-02-15T01:51:45;57.83;;;9.35;;
74707;SDS011;63360;50.104;8.074;2023-02-15T01:54:19;88.30;;;10.70;;
74707;SDS011;63360;50.104;8.074;2023-02-15T01:56:47;61.47;;;9.23;;
74707;SDS011;63360;50.104;8.074;2023-02-15T01:59:19;34.63;;;8.38;;
74707;SDS011;63360;50.104;8.074;2023-02-15T02:01:48;25.50;;;8.23;;
74707;SDS011;63360;50.104;8.074;2023-02-15T02:04:18;27.88;;;8.23;;
74707;SDS011;63360;50.104;8.074;2023-02-15T02:06:51;107.03;;;10.02;;
74707;SDS011;63360;50.104;8.074;2023-02-15T02:09:19;133.85;;;10.80;;
74707;SDS011;63360;50.104;8.074;2023-02-15T02:11:46;53.40;;;8.65;;
74707;SDS011;63360;50.104;8.074;2023-02-15T02:14:14;36.77;;;8.13;;
74707;SDS011;63360;50.104;8.074;2023-02-15T02:25:01;79.20;;;9.18;;
74707;SDS011;63360;50.104;8.074;2023-02-15T02:30:44;122.22;;;10.40;;
74707;SDS011;63360;50.104;8.074;2023-02-15T02:36:15;95.70;;;9.35;;
74707;SDS011;63360;50.104;8.074;2023-02-15T02:44:29;77.47;;;8.50;;
74707;SDS011;63360;50.104;8.074;2023-02-15T02:49:29;105.50;;;9.57;;
74707;SDS011;63360;50.104;8.074;2023-02-15T02:51:59;20.42;;;7.22;;
74707;SDS011;63360;50.104;8.074;2023-02-15T02:54:27;22.60;;;7.13;;
74707;SDS011;63360;50.104;8.074;2023-02-15T02:56:54;153.85;;;10.32;;
74707;SDS011;63360;50.104;8.074;2023-02-15T02:59:25;108.20;;;9.38;;
74707;SDS011;63360;50.104;8.074;2023-02-15T03:04:39;109.70;;;8.73;;
74707;SDS011;63360;50.104;8.074;2023-02-15T03:07:12;20.70;;;6.50;;
74707;SDS011;63360;50.104;8.074;2023-02-15T03:09:49;96.80;;;8.32;;
74707;SDS011;63360;50.104;8.074;2023-02-15T03:12:19;114.07;;;8.50;;
74707;SDS011;63360;50.104;8.074;2023-02-15T03:14:48;69.97;;;7.65;;
74707;SDS011;63360;50.104;8.074;2023-02-15T03:17:18;161.15;;;9.15;;
74707;SDS011;63360;50.104;8.074;2023-02-15T03:19:48;39.47;;;6.77;;
74707;SDS011;63360;50.104;8.074;2023-02-15T03:22:27;64.03;;;7.55;;
74707;SDS011;63360;50.104;8.074;2023-02-15T03:25:00;48.92;;;7.30;;
74707;SDS011;63360;50.104;8.074;2023-02-15T03:27:33;79.50;;;7.60;;
74707;SDS011;63360;50.104;8.074;2023-02-15T03:30:04;107.60;;;8.88;;
74707;SDS011;63360;50.104;8.074;2023-02-15T03:32:32;56.13;;;7.43;;
74707;SDS011;63360;50.104;8.074;2023-02-15T03:35:00;95.95;;;8.07;;
74707;SDS011;63360;50.104;8.074;2023-02-15T03:37:30;92.10;;;8.80;;
74707;SDS011;63360;50.104;8.074;2023-02-15T03:40:16;39.45;;;7.75;;
74707;SDS011;63360;50.104;8.074;2023-02-15T03:43:16;87.18;;;8.30;;
74707;SDS011;63360;50.104;8.074;2023-02-15T03:45:51;39.30;;;7.13;;
74707;SDS011;63360;50.104;8.074;2023-02-15T03:48:22;60.60;;;8.27;;
74707;SDS011;63360;50.104;8.074;2023-02-15T03:51:02;49.40;;;7.40;;
74707;SDS011;63360;50.104;8.074;2023-02-15T03:53:51;70.55;;;7.95;;
74707;SDS011;63360;50.104;8.074;2023-02-15T03:56:18;55.33;;;7.55;;
74707;SDS011;63360;50.104;8.074;2023-02-15T03:58:45;31.90;;;7.27;;
74707;SDS011;63360;50.104;8.074;2023-02-15T04:04:28;24.73;;;6.50;;
74707;SDS011;63360;50.104;8.074;2023-02-15T04:06:59;31.70;;;7.03;;
74707;SDS011;63360;50.104;8.074;2023-02-15T04:09:27;27.42;;;6.70;;
74707;SDS011;63360;50.104;8.074;2023-02-15T04:12:12;51.53;;;7.17;;
74707;SDS011;63360;50.104;8.074;2023-02-15T04:14:38;22.80;;;6.80;;
74707;SDS011;63360;50.104;8.074;2023-02-15T04:17:23;45.50;;;6.90;;
74707;SDS011;63360;50.104;8.074;2023-02-15T04:19:50;56.38;;;7.57;;
74707;SDS011;63360;50.104;8.074;2023-02-15T04:22:35;31.08;;;7.20;;
74707;SDS011;63360;50.104;8.074;2023-02-15T04:25:20;46.93;;;6.87;;
74707;SDS011;63360;50.104;8.074;2023-02-15T04:27:48;78.82;;;7.47;;
74707;SDS011;63360;50.104;8.074;2023-02-15T04:30:16;34.45;;;7.05;;
74707;SDS011;63360;50.104;8.074;2023-02-15T04:32:44;46.08;;;7.32;;
74707;SDS011;63360;50.104;8.074;2023-02-15T04:35:11;38.47;;;6.82;;
74707;SDS011;63360;50.104;8.074;2023-02-15T04:37:38;89.33;;;7.83;;
74707;SDS011;63360;50.104;8.074;2023-02-15T04:40:06;28.08;;;6.70;;
74707;SDS011;63360;50.104;8.074;2023-02-15T04:42:33;114.25;;;8.13;;
74707;SDS011;63360;50.104;8.074;2023-02-15T04:45:00;95.82;;;7.85;;
74707;SDS011;63360;50.104;8.074;2023-02-15T04:47:26;66.85;;;7.63;;
74707;SDS011;63360;50.104;8.074;2023-02-15T04:49:52;43.23;;;6.90;;
74707;SDS011;63360;50.104;8.074;2023-02-15T04:52:19;182.73;;;11.00;;
74707;SDS011;63360;50.104;8.074;2023-02-15T04:54:45;204.82;;;10.32;;
74707;SDS011;63360;50.104;8.074;2023-02-15T04:57:12;65.80;;;6.57;;
74707;SDS011;63360;50.104;8.074;2023-02-15T04:59:38;49.42;;;7.72;;
74707;SDS011;63360;50.104;8.074;2023-02-15T05:02:05;36.50;;;6.70;;
74707;SDS011;63360;50.104;8.074;2023-02-15T05:04:31;118.05;;;8.55;;
74707;SDS011;63360;50.104;8.074;2023-02-15T05:06:57;104.28;;;7.85;;
74707;SDS011;63360;50.104;8.074;2023-02-15T05:09:24;187.90;;;10.02;;
74707;SDS011;63360;50.104;8.074;2023-02-15T05:11:50;124.30;;;8.93;;
74707;SDS011;63360;50.104;8.074;2023-02-15T05:14:17;120.10;;;8.70;;
74707;SDS011;63360;50.104;8.074;2023-02-15T05:16:43;98.32;;;8.00;;
74707;SDS011;63360;50.104;8.074;2023-02-15T05:19:10;62.22;;;7.03;;
74707;SDS011;63360;50.104;8.074;2023-02-15T05:21:36;31.55;;;6.40;;
74707;SDS011;63360;50.104;8.074;2023-02-15T05:24:02;110.18;;;7.55;;
74707;SDS011;63360;50.104;8.074;2023-02-15T05:26:49;42.83;;;6.33;;
74707;SDS011;63360;50.104;8.074;2023-02-15T05:29:34;166.15;;;9.32;;
74707;SDS011;63360;50.104;8.074;2023-02-15T05:32:00;30.92;;;6.13;;
74707;SDS011;63360;50.104;8.074;2023-02-15T05:34:28;157.18;;;9.55;;
74707;SDS011;63360;50.104;8.074;2023-02-15T05:36:54;208.80;;;9.23;;
74707;SDS011;63360;50.104;8.074;2023-02-15T05:39:21;59.20;;;6.23;;
74707;SDS011;63360;50.104;8.074;2023-02-15T05:41:48;59.22;;;6.80;;
74707;SDS011;63360;50.104;8.074;2023-02-15T05:44:14;114.82;;;8.50;;
74707;SDS011;63360;50.104;8.074;2023-02-15T05:46:41;184.10;;;9.07;;
74707;SDS011;63360;50.104;8.074;2023-02-15T05:49:07;116.80;;;7.38;;
74707;SDS011;63360;50.104;8.074;2023-02-15T05:51:33;238.90;;;10.37;;
74707;SDS011;63360;50.104;8.074;2023-02-15T05:54:00;90.63;;;6.93;;
74707;SDS011;63360;50.104;8.074;2023-02-15T05:56:26;52.60;;;6.40;;
74707;SDS011;63360;50.104;8.074;2023-02-15T05:58:52;114.68;;;7.55;;
74707;SDS011;63360;50.104;8.074;2023-02-15T06:01:20;133.20;;;7.57;;
74707;SDS011;63360;50.104;8.074;2023-02-15T06:03:48;277.83;;;10.63;;
74707;SDS011;63360;50.104;8.074;2023-02-15T06:06:15;312.90;;;10.98;;
74707;SDS011;63360;50.104;8.074;2023-02-15T06:08:42;91.53;;;5.82;;
74707;SDS011;63360;50.104;8.074;2023-02-15T06:11:08;93.72;;;6.70;;
74707;SDS011;63360;50.104;8.074;2023-02-15T06:13:35;181.35;;;8.15;;
74707;SDS011;63360;50.104;8.074;2023-02-15T06:16:04;22.97;;;4.10;;
74707;SDS011;63360;50.104;8.074;2023-02-15T06:18:32;266.83;;;10.52;;
74707;SDS011;63360;50.104;8.074;2023-02-15T06:20:58;160.95;;;7.15;;
74707;SDS011;63360;50.104;8.074;2023-02-15T06:23:25;102.18;;;6.35;;
74707;SDS011;63360;50.104;8.074;2023-02-15T06:25:51;87.85;;;6.20;;
74707;SDS011;63360;50.104;8.074;2023-02-15T06:28:17;94.73;;;7.03;;
74707;SDS011;63360;50.104;8.074;2023-02-15T06:30:44;148.10;;;8.85;;
74707;SDS011;63360;50.104;8.074;2023-02-15T06:33:10;200.88;;;8.88;;
74707;SDS011;63360;50.104;8.074;2023-02-15T06:35:37;78.90;;;5.70;;
74707;SDS011;63360;50.104;8.074;2023-02-15T06:38:03;172.80;;;7.90;;
74707;SDS011;63360;50.104;8.074;2023-02-15T06:40:29;23.80;;;4.30;;
74707;SDS011;63360;50.104;8.074;2023-02-15T06:42:56;43.75;;;5.13;;
74707;SDS011;63360;50.104;8.074;2023-02-15T06:45:22;87.00;;;5.85;;
74707;SDS011;63360;50.104;8.074;2023-02-15T06:47:48;134.32;;;7.57;;
74707;SDS011;63360;50.104;8.074;2023-02-15T06:50:15;101.68;;;6.47;;
74707;SDS011;63360;50.104;8.074;2023-02-15T06:52:41;70.27;;;5.67;;
74707;SDS011;63360;50.104;8.074;2023-02-15T06:55:08;321.48;;;11.57;;
74707;SDS011;63360;50.104;8.074;2023-02-15T06:57:34;120.50;;;6.95;;
74707;SDS011;63360;50.104;8.074;2023-02-15T07:00:01;87.90;;;6.80;;
74707;SDS011;63360;50.104;8.074;2023-02-15T07:02:27;259.50;;;9.88;;
74707;SDS011;63360;50.104;8.074;2023-02-15T07:04:54;191.00;;;8.13;;
74707;SDS011;63360;50.104;8.074;2023-02-15T07:07:20;148.77;;;6.65;;
74707;SDS011;63360;50.104;8.074;2023-02-15T07:09:47;65.68;;;5.43;;
74707;SDS011;63360;50.104;8.074;2023-02-15T07:12:13;228.38;;;8.38;;
74707;SDS011;63360;50.104;8.074;2023-02-15T07:14:58;92.30;;;5.85;;
74707;SDS011;63360;50.104;8.074;2023-02-15T07:17:25;129.93;;;6.83;;
74707;SDS011;63360;50.104;8.074;2023-02-15T07:20:05;126.45;;;6.15;;
74707;SDS011;63360;50.104;8.074;2023-02-15T07:23:03;100.50;;;5.78;;
74707;SDS011;63360;50.104;8.074;2023-02-15T07:25:30;209.07;;;8.30;;
74707;SDS011;63360;50.104;8.074;2023-02-15T07:27:57;82.38;;;5.47;;
74707;SDS011;63360;50.104;8.074;2023-02-15T07:30:25;118.43;;;6.17;;
74707;SDS011;63360;50.104;8.074;2023-02-15T07:32:55;249.50;;;9.70;;
74707;SDS011;63360;50.104;8.074;2023-02-15T07:35:47;137.95;;;6.25;;
74707;SDS011;63360;50.104;8.074;2023-02-15T07:38:23;212.45;;;8.07;;
74707;SDS011;63360;50.104;8.074;2023-02-15T07:40:51;167.73;;;7.40;;
74707;SDS011;63360;50.104;8.074;2023-02-15T07:43:17;131.33;;;7.37;;
74707;SDS011;63360;50.104;8.074;2023-02-15T07:45:44;211.90;;;8.98;;
74707;SDS011;63360;50.104;8.074;2023-02-15T07:48:10;247.98;;;9.70;;
74707;SDS011;63360;50.104;8.074;2023-02-15T07:50:36;145.15;;;7.65;;
74707;SDS011;63360;50.104;8.074;2023-02-15T07:53:03;257.40;;;9.82;;
74707;SDS011;63360;50.104;8.074;2023-02-15T07:55:30;264.07;;;9.13;;
74707;SDS011;63360;50.104;8.074;2023-02-15T07:57:56;88.40;;;5.75;;
74707;SDS011;63360;50.104;8.074;2023-02-15T08:00:23;78.07;;;5.43;;
74707;SDS011;63360;50.104;8.074;2023-02-15T08:02:51;273.08;;;8.93;;
74707;SDS011;63360;50.104;8.074;2023-02-15T08:05:39;306.90;;;9.88;;
74707;SDS011;63360;50.104;8.074;2023-02-15T08:08:07;347.97;;;12.03;;
74707;SDS011;63360;50.104;8.074;2023-02-15T08:10:37;192.25;;;8.23;;
74707;SDS011;63360;50.104;8.074;2023-02-15T08:13:22;112.38;;;5.85;;
74707;SDS011;63360;50.104;8.074;2023-02-15T08:15:49;105.60;;;5.60;;
74707;SDS011;63360;50.104;8.074;2023-02-15T08:18:16;139.32;;;6.85;;
74707;SDS011;63360;50.104;8.074;2023-02-15T08:20:42;79.50;;;5.30;;
74707;SDS011;63360;50.104;8.074;2023-02-15T08:23:14;109.88;;;5.85;;
74707;SDS011;63360;50.104;8.074;2023-02-15T08:25:40;281.02;;;9.85;;
74707;SDS011;63360;50.104;8.074;2023-02-15T08:28:07;99.28;;;5.13;;
74707;SDS011;63360;50.104;8.074;2023-02-15T08:30:33;41.80;;;4.43;;
74707;SDS011;63360;50.104;8.074;2023-02-15T08:33:02;151.90;;;6.90;;
74707;SDS011;63360;50.104;8.074;2023-02-15T08:35:28;264.17;;;8.57;;
74707;SDS011;63360;50.104;8.074;2023-02-15T08:37:54;310.35;;;11.75;;
74707;SDS011;63360;50.104;8.074;2023-02-15T08:40:21;177.05;;;7.20;;
74707;SDS011;63360;50.104;8.074;2023-02-15T08:42:47;70.00;;;5.65;;
74707;SDS011;63360;50.104;8.074;2023-02-15T08:45:14;138.60;;;5.67;;
74707;SDS011;63360;50.104;8.074;2023-02-15T08:47:40;110.88;;;6.07;;
74707;SDS011;63360;50.104;8.074;2023-02-15T08:50:06;140.00;;;7.28;;
74707;SDS011;63360;50.104;8.074;2023-02-15T08:52:33;120.38;;;6.80;;
74707;SDS011;63360;50.104;8.074;2023-02-15T08:54:59;265.80;;;9.35;;
74707;SDS011;63360;50.104;8.074;2023-02-15T08:57:26;202.77;;;8.50;;
74707;SDS011;63360;50.104;8.074;2023-02-15T08:59:53;200.75;;;8.38;;
74707;SDS011;63360;50.104;8.074;2023-02-15T09:02:21;240.38;;;7.88;;
74707;SDS011;63360;50.104;8.074;2023-02-15T09:04:47;270.55;;;9.30;;
74707;SDS011;63360;50.104;8.074;2023-02-15T09:07:14;39.03;;;4.07;;
74707;SDS011;63360;50.104;8.074;2023-02-15T09:09:40;199.33;;;8.93;;
74707;SDS011;63360;50.104;8.074;2023-02-15T09:12:06;392.83;;;12.27;;
74707;SDS011;63360;50.104;8.074;2023-02-15T09:14:33;101.05;;;5.22;;
74707;SDS011;63360;50.104;8.074;2023-02-15T09:16:59;72.22;;;4.97;;
74707;SDS011;63360;50.104;8.074;2023-02-15T09:19:27;59.47;;;5.03;;
74707;SDS011;63360;50.104;8.074;2023-02-15T09:21:53;79.97;;;5.00;;
74707;SDS011;63360;50.104;8.074;2023-02-15T09:24:20;188.32;;;7.30;;
74707;SDS011;63360;50.104;8.074;2023-02-15T09:26:47;176.30;;;6.93;;
74707;SDS011;63360;50.104;8.074;2023-02-15T09:29:15;114.75;;;6.22;;
74707;SDS011;63360;50.104;8.074;2023-02-15T09:31:44;125.00;;;6.18;;
74707;SDS011;63360;50.104;8.074;2023-02-15T09:34:12;103.67;;;5.53;;
74707;SDS011;63360;50.104;8.074;2023-02-15T09:36:39;33.13;;;3.92;;
74707;SDS011;63360;50.104;8.074;2023-02-15T09:39:14;163.38;;;7.90;;
74707;SDS011;63360;50.104;8.074;2023-02-15T09:48:01;214.30;;;7.70;;
74707;SDS011;63360;50.104;8.074;2023-02-15T09:50:43;227.85;;;8.50;;
74707;SDS011;63360;50.104;8.074;2023-02-15T10:01:48;89.47;;;5.30;;
74707;SDS011;63360;50.104;8.074;2023-02-15T10:04:34;40.88;;;4.35;;
74707;SDS011;63360;50.104;8.074;2023-02-15T10:07:10;192.52;;;7.95;;
74707;SDS011;63360;50.104;8.074;2023-02-15T10:20:46;166.48;;;9.30;;
74707;SDS011;63360;50.104;8.074;2023-02-15T10:26:10;93.72;;;5.90;;
74707;SDS011;63360;50.104;8.074;2023-02-15T10:31:17;99.43;;;6.97;;
74707;SDS011;63360;50.104;8.074;2023-02-15T10:36:56;134.55;;;8.38;;
74707;SDS011;63360;50.104;8.074;2023-02-15T10:45:20;162.13;;;9.48;;
74707;SDS011;63360;50.104;8.074;2023-02-15T10:48:00;109.05;;;7.70;;
74707;SDS011;63360;50.104;8.074;2023-02-15T10:50:46;80.47;;;7.40;;
74707;SDS011;63360;50.104;8.074;2023-02-15T10:53:19;141.70;;;8.20;;
74707;SDS011;63360;50.104;8.074;2023-02-15T10:56:24;186.73;;;9.10;;
74707;SDS011;63360;50.104;8.074;2023-02-15T11:10:01;179.93;;;10.17;;
74707;SDS011;63360;50.104;8.074;2023-02-15T11:12:43;38.83;;;6.38;;
74707;SDS011;63360;50.104;8.074;2023-02-15T11:15:15;208.73;;;11.10;;
74707;SDS011;63360;50.104;8.074;2023-02-15T11:17:53;329.73;;;14.00;;
74707;SDS011;63360;50.104;8.074;2023-02-15T11:23:30;50.63;;;6.57;;
74707;SDS011;63360;50.104;8.074;2023-02-15T11:26:02;126.38;;;8.70;;
74707;SDS011;63360;50.104;8.074;2023-02-15T11:28:31;60.00;;;7.22;;
74707;SDS011;63360;50.104;8.074;2023-02-15T11:31:11;79.32;;;8.30;;
74707;SDS011;63360;50.104;8.074;2023-02-15T11:33:43;31.27;;;6.63;;
74707;SDS011;63360;50.104;8.074;2023-02-15T11:36:16;110.30;;;8.50;;
74707;SDS011;63360;50.104;8.074;2023-02-15T11:38:49;70.72;;;7.40;;
74707;SDS011;63360;50.104;8.074;2023-02-15T11:41:24;83.18;;;6.95;;
74707;SDS011;63360;50.104;8.074;2023-02-15T11:44:37;111.78;;;8.05;;
74707;SDS011;63360;50.104;8.074;2023-02-15T11:46:46;213.88;;;10.52;;
74707;SDS011;63360;50.104;8.074;2023-02-15T11:51:57;103.90;;;7.63;;
74707;SDS011;63360;50.104;8.074;2023-02-15T11:54:27;56.45;;;6.75;;
74707;SDS011;63360;50.104;8.074;2023-02-15T11:56:56;129.48;;;8.15;;
74707;SDS011;63360;50.104;8.074;2023-02-15T11:59:28;291.85;;;12.43;;
74707;SDS011;63360;50.104;8.074;2023-02-15T12:02:00;32.47;;;6.47;;
74707;SDS011;63360;50.104;8.074;2023-02-15T12:04:31;62.85;;;8.82;;
74707;SDS011;63360;50.104;8.074;2023-02-15T12:10:03;158.18;;;10.32;;
74707;SDS011;63360;50.104;8.074;2023-02-15T12:12:37;114.47;;;9.57;;
74707;SDS011;63360;50.104;8.074;2023-02-15T12:15:05;45.40;;;7.87;;
74707;SDS011;63360;50.104;8.074;2023-02-15T12:17:34;247.82;;;13.38;;
74707;SDS011;63360;50.104;8.074;2023-02-15T12:22:51;30.13;;;7.60;;
74707;SDS011;63360;50.104;8.074;2023-02-15T12:25:33;48.63;;;8.57;;
74707;SDS011;63360;50.104;8.074;2023-02-15T12:28:00;23.57;;;8.07;;
74707;SDS011;63360;50.104;8.074;2023-02-15T12:30:31;30.75;;;8.32;;
74707;SDS011;63360;50.104;8.074;2023-02-15T12:35:43;67.68;;;8.82;;
74707;SDS011;63360;50.104;8.074;2023-02-15T12:40:36;29.03;;;8.40;;
74707;SDS011;63360;50.104;8.074;2023-02-15T12:43:04;44.17;;;8.80;;
74707;SDS011;63360;50.104;8.074;2023-02-15T12:45:37;64.70;;;9.00;;
74707;SDS011;63360;50.104;8.074;2023-02-15T12:48:08;30.20;;;9.13;;
74707;SDS011;63360;50.104;8.074;2023-02-15T12:50:34;130.95;;;11.02;;
74707;SDS011;63360;50.104;8.074;2023-02-15T12:53:11;87.53;;;9.70;;
74707;SDS011;63360;50.104;8.074;2023-02-15T12:55:39;22.63;;;8.65;;
74707;SDS011;63360;50.104;8.074;2023-02-15T12:58:18;128.45;;;10.65;;
74707;SDS011;63360;50.104;8.074;2023-02-15T13:03:58;97.50;;;9.85;;
74707;SDS011;63360;50.104;8.074;2023-02-15T13:06:31;164.17;;;11.97;;
74707;SDS011;63360;50.104;8.074;2023-02-15T13:09:20;126.63;;;10.75;;
74707;SDS011;63360;50.104;8.074;2023-02-15T13:11:51;111.18;;;10.45;;
74707;SDS011;63360;50.104;8.074;2023-02-15T13:14:19;68.40;;;10.48;;
74707;SDS011;63360;50.104;8.074;2023-02-15T13:16:50;80.03;;;9.70;;
74707;SDS011;63360;50.104;8.074;2023-02-15T13:19:21;38.53;;;8.80;;
74707;SDS011;63360;50.104;8.074;2023-02-15T13:21:54;285.63;;;14.10;;
74707;SDS011;63360;50.104;8.074;2023-02-15T13:24:24;58.20;;;10.52;;
74707;SDS011;63360;50.104;8.074;2023-02-15T13:26:54;85.22;;;10.27;;
74707;SDS011;63360;50.104;8.074;2023-02-15T13:29:39;34.97;;;8.70;;
74707;SDS011;63360;50.104;8.074;2023-02-15T13:32:30;54.57;;;9.87;;
74707;SDS011;63360;50.104;8.074;2023-02-15T13:35:03;23.92;;;8.43;;
74707;SDS011;63360;50.104;8.074;2023-02-15T13:37:49;55.67;;;9.98;;
74707;SDS011;63360;50.104;8.074;2023-02-15T13:54:05;59.42;;;8.82;;
74707;SDS011;63360;50.104;8.074;2023-02-15T13:57:03;42.83;;;8.23;;
74707;SDS011;63360;50.104;8.074;2023-02-15T14:07:47;253.70;;;14.85;;
74707;SDS011;63360;50.104;8.074;2023-02-15T14:10:25;84.45;;;10.90;;
74707;SDS011;63360;50.104;8.074;2023-02-15T14:19:03;64.93;;;9.85;;
74707;SDS011;63360;50.104;8.074;2023-02-15T14:21:32;58.92;;;9.88;;
74707;SDS011;63360;50.104;8.074;2023-02-15T14:29:48;168.35;;;14.00;;
74707;SDS011;63360;50.104;8.074;2023-02-15T14:32:21;121.22;;;14.10;;
74707;SDS011;63360;50.104;8.074;2023-02-15T14:34:57;123.13;;;12.88;;
74707;SDS011;63360;50.104;8.074;2023-02-15T14:43:15;112.13;;;12.38;;
74707;SDS011;63360;50.104;8.074;2023-02-15T14:45:53;35.58;;;9.88;;
74707;SDS011;63360;50.104;8.074;2023-02-15T14:51:03;79.97;;;10.38;;
74707;SDS011;63360;50.104;8.074;2023-02-15T14:53:34;83.70;;;10.03;;
74707;SDS011;63360;50.104;8.074;2023-02-15T15:01:32;49.17;;;10.43;;
74707;SDS011;63360;50.104;8.074;2023-02-15T15:04:02;35.40;;;10.25;;
74707;SDS011;63360;50.104;8.074;2023-02-15T15:06:35;138.70;;;12.90;;
74707;SDS011;63360;50.104;8.074;2023-02-15T15:11:47;157.38;;;14.00;;
74707;SDS011;63360;50.104;8.074;2023-02-15T15:14:36;78.05;;;11.95;;
74707;SDS011;63360;50.104;8.074;2023-02-15T15:17:05;81.65;;;11.90;;
74707;SDS011;63360;50.104;8.074;2023-02-15T15:22:18;35.28;;;11.05;;
74707;SDS011;63360;50.104;8.074;2023-02-15T15:24:47;89.43;;;12.60;;
74707;SDS011;63360;50.104;8.074;2023-02-15T15:35:22;57.22;;;12.98;;
74707;SDS011;63360;50.104;8.074;2023-02-15T15:49:17;34.40;;;10.38;;
74707;SDS011;63360;50.104;8.074;2023-02-15T15:51:46;45.30;;;11.48;;
74707;SDS011;63360;50.104;8.074;2023-02-15T15:54:18;37.55;;;10.80;;
74707;SDS011;63360;50.104;8.074;2023-02-15T15:56:48;28.38;;;10.00;;
74707;SDS011;63360;50.104;8.074;2023-02-15T15:59:19;39.63;;;10.93;;
74707;SDS011;63360;50.104;8.074;2023-02-15T16:01:50;52.55;;;11.02;;
74707;SDS011;63360;50.104;8.074;2023-02-15T16:04:27;41.10;;;10.00;;
74707;SDS011;63360;50.104;8.074;2023-02-15T16:06:56;69.28;;;12.10;;
74707;SDS011;63360;50.104;8.074;2023-02-15T16:09:25;39.22;;;11.30;;
74707;SDS011;63360;50.104;8.074;2023-02-15T16:11:53;74.90;;;11.50;;
74707;SDS011;63360;50.104;8.074;2023-02-15T16:14:31;121.72;;;14.02;;
74707;SDS011;63360;50.104;8.074;2023-02-15T16:17:04;49.63;;;11.30;;
74707;SDS011;63360;50.104;8.074;2023-02-15T16:19:34;46.13;;;11.52;;
74707;SDS011;63360;50.104;8.074;2023-02-15T16:22:06;64.65;;;12.32;;
74707;SDS011;63360;50.104;8.074;2023-02-15T16:29:49;55.50;;;11.63;;
74707;SDS011;63360;50.104;8.074;2023-02-15T16:32:22;76.78;;;11.82;;
74707;SDS011;63360;50.104;8.074;2023-02-15T16:35:00;128.90;;;12.90;;
74707;SDS011;63360;50.104;8.074;2023-02-15T16:37:34;26.60;;;10.27;;
74707;SDS011;63360;50.104;8.074;2023-02-15T16:40:01;108.30;;;12.38;;
74707;SDS011;63360;50.104;8.074;2023-02-15T16:42:27;57.60;;;11.38;;
74707;SDS011;63360;50.104;8.074;2023-02-15T16:45:03;63.60;;;12.10;;
74707;SDS011;63360;50.104;8.074;2023-02-15T16:47:31;35.13;;;10.27;;
74707;SDS011;63360;50.104;8.074;2023-02-15T16:50:02;50.53;;;11.60;;
74707;SDS011;63360;50.104;8.074;2023-02-15T16:52:30;71.72;;;12.40;;
74707;SDS011;63360;50.104;8.074;2023-02-15T16:55:00;41.53;;;11.02;;
74707;SDS011;63360;50.104;8.074;2023-02-15T16:57:31;26.30;;;10.52;;
74707;SDS011;63360;50.104;8.074;2023-02-15T17:00:03;44.88;;;11.40;;
74707;SDS011;63360;50.104;8.074;2023-02-15T17:02:33;84.93;;;12.93;;
74707;SDS011;63360;50.104;8.074;2023-02-15T17:05:20;37.53;;;10.77;;
74707;SDS011;63360;50.104;8.074;2023-02-15T17:08:04;64.15;;;11.13;;
74707;SDS011;63360;50.104;8.074;2023-02-15T17:13:32;114.65;;;14.20;;
74707;SDS011;63360;50.104;8.074;2023-02-15T17:18:29;75.10;;;12.07;;
74707;SDS011;63360;50.104;8.074;2023-02-15T17:20:59;45.47;;;11.40;;
74707;SDS011;63360;50.104;8.074;2023-02-15T17:23:36;30.80;;;10.60;;
74707;SDS011;63360;50.104;8.074;2023-02-15T17:26:11;70.40;;;13.18;;
74707;SDS011;63360;50.104;8.074;2023-02-15T17:28:49;28.17;;;11.17;;
74707;SDS011;63360;50.104;8.074;2023-02-15T17:31:18;48.45;;;12.70;;
74707;SDS011;63360;50.104;8.074;2023-02-15T17:33:47;33.03;;;11.73;;
74707;SDS011;63360;50.104;8.074;2023-02-15T17:41:27;48.43;;;16.80;;
74707;SDS011;63360;50.104;8.074;2023-02-15T17:43:54;50.53;;;15.25;;
74707;SDS011;63360;50.104;8.074;2023-02-15T17:46:20;42.97;;;14.77;;
74707;SDS011;63360;50.104;8.074;2023-02-15T17:48:51;43.30;;;13.93;;
74707;SDS011;63360;50.104;8.074;2023-02-15T17:51:20;52.58;;;13.77;;